createdAt,value
2023-01-29T00:02:04.750Z,5.38
2023-01-29T00:04:31.892Z,4.25
2023-01-29T00:07:01.218Z,4.28
2023-01-29T00:11:54.543Z,5.13
2023-01-29T00:14:21.156Z,6.53
2023-01-29T00:16:47.644Z,3.47
2023-01-29T00:19:14.178Z,3.97
2023-01-29T00:21:40.603Z,5.28
2023-01-29T00:24:07.206Z,4.50
2023-01-29T00:26:33.666Z,5.78
2023-01-29T00:29:02.939Z,5.82
2023-01-29T00:31:29.646Z,6.15
2023-01-29T00:33:56.933Z,5.40
2023-01-29T00:36:23.487Z,5.85
2023-01-29T00:39:00.462Z,5.40
2023-01-29T00:41:50.263Z,4.57
2023-01-29T00:44:36.057Z,5.45
2023-01-29T00:47:03.611Z,4.88
2023-01-29T00:49:32.942Z,5.47
2023-01-29T00:52:17.888Z,6.65
2023-01-29T00:54:44.297Z,4.20
2023-01-29T00:57:11.935Z,4.95
2023-01-29T00:59:38.311Z,4.57
2023-01-29T01:02:23.644Z,6.45
2023-01-29T01:04:50.141Z,3.90
2023-01-29T01:07:16.592Z,6.68
2023-01-29T01:10:01.669Z,9.18
2023-01-29T01:12:29.323Z,14.73
2023-01-29T01:14:58.449Z,7.60
2023-01-29T01:17:24.983Z,7.28
2023-01-29T01:19:51.408Z,6.72
2023-01-29T01:22:18.108Z,6.57
2023-01-29T01:24:44.609Z,4.93
2023-01-29T01:27:11.036Z,6.50
2023-01-29T01:29:37.444Z,7.65
2023-01-29T01:32:04.151Z,6.47
2023-01-29T01:34:30.612Z,5.60
2023-01-29T01:36:57.333Z,6.65
2023-01-29T01:39:24.647Z,6.65
2023-01-29T01:41:53.637Z,8.40
2023-01-29T01:44:58.641Z,6.80
2023-01-29T01:47:30.800Z,6.60
2023-01-29T01:50:02.996Z,6.32
2023-01-29T01:52:32.003Z,6.22
2023-01-29T01:55:00.394Z,6.35
2023-01-29T01:57:28.846Z,6.60
2023-01-29T02:00:13.756Z,8.70
2023-01-29T02:03:02.052Z,4.78
2023-01-29T02:05:49.333Z,7.70
2023-01-29T02:08:39.935Z,6.38
2023-01-29T02:11:07.194Z,7.20
2023-01-29T02:13:33.754Z,7.65
2023-01-29T02:16:00.133Z,7.68
2023-01-29T02:18:26.653Z,6.97
2023-01-29T02:21:14.712Z,7.05
2023-01-29T02:24:05.475Z,6.72
2023-01-29T02:26:37.932Z,7.25
2023-01-29T02:29:30.457Z,11.02
2023-01-29T02:32:12.585Z,7.25
2023-01-29T02:35:29.914Z,6.55
2023-01-29T02:38:11.519Z,7.20
2023-01-29T02:40:41.115Z,8.43
2023-01-29T02:43:29.033Z,9.80
2023-01-29T02:46:07.307Z,8.82
2023-01-29T02:48:40.827Z,7.90
2023-01-29T02:51:35.019Z,6.82
2023-01-29T02:54:13.585Z,6.28
2023-01-29T02:56:56.233Z,9.43
2023-01-29T02:59:37.072Z,8.55
2023-01-29T03:02:10.312Z,9.57
2023-01-29T03:04:45.619Z,11.93
2023-01-29T03:07:42.414Z,9.10
2023-01-29T03:10:24.580Z,8.13
2023-01-29T03:12:59.591Z,8.50
2023-01-29T03:15:38.536Z,7.30
2023-01-29T03:18:18.318Z,8.63
2023-01-29T03:20:50.084Z,7.95
2023-01-29T03:23:37.887Z,6.88
2023-01-29T03:26:24.373Z,8.55
2023-01-29T03:29:10.719Z,10.98
2023-01-29T03:31:56.092Z,7.18
2023-01-29T03:34:36.154Z,10.70
2023-01-29T03:37:09.158Z,9.23
2023-01-29T03:39:36.921Z,9.45
2023-01-29T03:42:17.604Z,9.23
2023-01-29T03:44:51.988Z,8.55
2023-01-29T03:47:27.155Z,7.60
2023-01-29T03:49:57.499Z,7.60
2023-01-29T03:52:34.823Z,6.95
2023-01-29T03:55:11.138Z,8.77
2023-01-29T03:57:58.559Z,10.93
2023-01-29T04:00:55.829Z,10.05
2023-01-29T04:03:34.173Z,6.45
2023-01-29T04:06:09.788Z,10.20
2023-01-29T04:08:53.856Z,9.35
2023-01-29T04:11:23.129Z,10.13
2023-01-29T04:13:51.570Z,9.80
2023-01-29T04:16:26.983Z,8.80
2023-01-29T04:18:54.699Z,7.97
2023-01-29T04:21:21.569Z,12.43
2023-01-29T04:23:48.021Z,9.60
2023-01-29T04:26:48.621Z,9.73
2023-01-29T04:29:25.234Z,9.18
2023-01-29T04:32:18.773Z,8.20
2023-01-29T04:35:07.761Z,8.85
2023-01-29T04:37:44.561Z,8.63
2023-01-29T04:40:33.522Z,10.75
2023-01-29T04:43:06.502Z,12.52
2023-01-29T04:45:44.697Z,7.97
2023-01-29T04:48:29.981Z,7.78
2023-01-29T04:51:08.164Z,8.75
2023-01-29T04:54:13.167Z,6.53
2023-01-29T04:56:56.934Z,10.68
2023-01-29T04:59:33.869Z,8.38
2023-01-29T05:02:02.436Z,9.18
2023-01-29T05:04:32.939Z,7.32
2023-01-29T05:07:04.720Z,8.00
2023-01-29T05:09:32.862Z,9.55
2023-01-29T05:12:01.316Z,12.48
2023-01-29T05:14:30.521Z,10.20
2023-01-29T05:16:58.911Z,10.05
2023-01-29T05:19:26.169Z,12.02
2023-01-29T05:21:52.906Z,9.65
2023-01-29T05:24:22.416Z,12.40
2023-01-29T05:27:09.387Z,8.55
2023-01-29T05:29:35.882Z,8.57
2023-01-29T05:32:03.536Z,8.20
2023-01-29T05:34:30.410Z,7.32
2023-01-29T05:36:56.816Z,9.95
2023-01-29T05:39:23.332Z,9.63
2023-01-29T05:41:49.764Z,10.60
2023-01-29T05:44:16.215Z,11.32
2023-01-29T05:46:43.875Z,11.07
2023-01-29T05:49:10.673Z,10.02
2023-01-29T05:51:37.063Z,9.25
2023-01-29T05:54:03.730Z,10.40
2023-01-29T05:56:30.170Z,9.55
2023-01-29T05:58:56.875Z,11.10
2023-01-29T06:01:25.460Z,10.75
2023-01-29T06:03:51.977Z,10.43
2023-01-29T06:06:18.458Z,11.70
2023-01-29T06:08:44.869Z,8.30
2023-01-29T06:11:12.750Z,9.43
2023-01-29T06:13:39.774Z,6.53
2023-01-29T06:16:10.966Z,6.28
2023-01-29T06:18:38.371Z,7.82
2023-01-29T06:21:07.080Z,8.77
2023-01-29T06:23:33.968Z,14.45
2023-01-29T06:26:01.932Z,6.85
2023-01-29T06:28:28.928Z,9.73
2023-01-29T06:31:21.041Z,11.63
2023-01-29T06:33:49.213Z,9.93
2023-01-29T06:36:15.855Z,8.82
2023-01-29T06:38:42.285Z,11.13
2023-01-29T06:41:11.052Z,11.30
2023-01-29T06:43:38.601Z,11.98
2023-01-29T06:46:07.975Z,13.52
2023-01-29T06:51:05.294Z,11.43
2023-01-29T06:53:34.030Z,11.82
2023-01-29T06:56:00.880Z,10.20
2023-01-29T06:58:27.310Z,12.10
2023-01-29T07:00:53.845Z,13.55
2023-01-29T07:03:20.325Z,11.00
2023-01-29T07:05:53.320Z,12.18
2023-01-29T07:08:22.632Z,12.82
2023-01-29T07:10:50.360Z,12.57
2023-01-29T07:13:16.980Z,14.57
2023-01-29T07:15:44.496Z,12.55
2023-01-29T07:18:13.535Z,12.82
2023-01-29T07:20:41.623Z,15.38
2023-01-29T07:23:14.595Z,16.67
2023-01-29T07:25:41.568Z,13.07
2023-01-29T07:28:08.225Z,13.18
2023-01-29T07:30:35.513Z,15.57
2023-01-29T07:33:08.094Z,13.85
2023-01-29T07:35:43.100Z,11.45
2023-01-29T07:38:10.834Z,17.13
2023-01-29T07:40:37.398Z,15.98
2023-01-29T07:43:07.255Z,13.05
2023-01-29T07:45:37.470Z,13.02
2023-01-29T07:48:05.329Z,11.73
2023-01-29T07:50:33.534Z,13.57
2023-01-29T07:53:00.173Z,12.18
2023-01-29T07:55:27.303Z,16.10
2023-01-29T07:58:01.914Z,14.95
2023-01-29T08:00:29.654Z,13.45
2023-01-29T08:03:05.880Z,12.65
2023-01-29T08:05:32.685Z,12.57
2023-01-29T08:08:06.482Z,10.70
2023-01-29T08:10:35.021Z,11.48
2023-01-29T08:13:03.172Z,14.95
2023-01-29T08:15:30.056Z,13.77
2023-01-29T08:17:58.291Z,14.27
2023-01-29T08:20:25.866Z,12.40
2023-01-29T08:23:03.000Z,14.93
2023-01-29T08:25:29.960Z,12.05
2023-01-29T08:27:57.964Z,12.15
2023-01-29T08:30:26.732Z,14.13
2023-01-29T08:32:53.331Z,13.70
2023-01-29T08:35:20.405Z,16.33
2023-01-29T08:38:01.599Z,16.02
2023-01-29T08:40:32.045Z,16.08
2023-01-29T08:43:01.997Z,13.43
2023-01-29T08:45:30.099Z,15.85
2023-01-29T08:47:56.567Z,14.25
2023-01-29T08:50:23.384Z,12.85
2023-01-29T08:52:49.784Z,14.57
2023-01-29T08:55:16.581Z,17.50
2023-01-29T08:57:43.153Z,14.15
2023-01-29T09:00:10.635Z,20.50
2023-01-29T09:02:37.796Z,14.90
2023-01-29T09:05:05.391Z,14.55
2023-01-29T09:07:31.959Z,17.60
2023-01-29T09:09:58.426Z,17.83
2023-01-29T09:12:24.879Z,18.38
2023-01-29T09:14:51.311Z,19.80
2023-01-29T09:17:17.925Z,17.02
2023-01-29T09:19:44.326Z,15.40
2023-01-29T09:22:12.022Z,19.58
2023-01-29T09:24:38.840Z,20.23
2023-01-29T09:27:06.178Z,18.30
2023-01-29T09:29:35.630Z,18.65
2023-01-29T09:32:03.763Z,14.15
2023-01-29T09:34:30.193Z,19.30
2023-01-29T09:36:56.669Z,14.48
2023-01-29T09:39:23.348Z,14.15
2023-01-29T09:42:08.350Z,12.68
2023-01-29T09:45:06.040Z,13.63
2023-01-29T09:47:35.746Z,11.65
2023-01-29T09:50:19.227Z,14.50
2023-01-29T09:52:57.500Z,14.70
2023-01-29T09:55:32.509Z,11.73
2023-01-29T09:58:37.583Z,12.18
2023-01-29T10:01:15.534Z,11.75
2023-01-29T10:04:03.463Z,12.18
2023-01-29T10:06:54.845Z,13.43
2023-01-29T10:09:46.405Z,15.65
2023-01-29T10:12:27.189Z,10.68
2023-01-29T10:15:17.427Z,11.52
2023-01-29T10:18:12.603Z,12.57
2023-01-29T10:21:16.323Z,12.45
2023-01-29T10:23:50.189Z,12.23
2023-01-29T10:26:18.537Z,12.65
2023-01-29T10:28:50.133Z,13.00
2023-01-29T10:31:32.810Z,13.70
2023-01-29T10:34:29.789Z,14.27
2023-01-29T10:36:59.034Z,12.45
2023-01-29T10:39:26.919Z,10.68
2023-01-29T10:42:03.461Z,13.27
2023-01-29T10:44:36.485Z,11.90
2023-01-29T10:47:42.897Z,14.18
2023-01-29T10:50:12.328Z,11.43
2023-01-29T10:55:20.389Z,9.55
2023-01-29T10:58:05.657Z,13.70
2023-01-29T11:00:40.228Z,12.13
2023-01-29T11:03:26.250Z,11.02
2023-01-29T11:06:17.868Z,12.10
2023-01-29T11:08:56.249Z,13.27
2023-01-29T11:11:33.225Z,11.13
2023-01-29T11:14:07.031Z,12.38
2023-01-29T11:16:44.363Z,14.40
2023-01-29T11:19:11.243Z,14.77
2023-01-29T11:21:58.049Z,12.05
2023-01-29T11:24:25.439Z,11.77
2023-01-29T11:26:55.443Z,11.57
2023-01-29T11:29:37.027Z,10.63
2023-01-29T11:35:04.672Z,11.07
2023-01-29T11:37:39.477Z,13.73
2023-01-29T11:40:36.793Z,13.35
2023-01-29T11:43:26.160Z,9.90
2023-01-29T11:46:05.370Z,11.45
2023-01-29T11:48:59.071Z,11.57
2023-01-29T11:51:33.134Z,13.15
2023-01-29T11:54:05.919Z,13.70
2023-01-29T11:56:42.904Z,12.35
2023-01-29T11:59:34.318Z,16.98
2023-01-29T12:02:26.713Z,12.20
2023-01-29T12:04:56.796Z,11.52
2023-01-29T12:07:23.680Z,12.10
2023-01-29T12:10:00.234Z,12.45
2023-01-29T12:12:30.377Z,12.35
2023-01-29T12:15:08.884Z,11.80
2023-01-29T12:17:39.155Z,9.30
2023-01-29T12:20:13.686Z,10.63
2023-01-29T12:22:48.790Z,8.75
2023-01-29T12:25:31.530Z,10.30
2023-01-29T12:28:08.498Z,10.25
2023-01-29T12:31:12.859Z,11.55
2023-01-29T12:34:00.542Z,11.13
2023-01-29T12:38:59.369Z,11.50
2023-01-29T12:41:53.985Z,11.20
2023-01-29T12:44:42.321Z,10.93
2023-01-29T12:47:27.837Z,10.85
2023-01-29T12:50:01.928Z,11.48
2023-01-29T12:52:50.914Z,13.13
2023-01-29T12:55:24.269Z,12.38
2023-01-29T12:58:00.035Z,14.27
2023-01-29T13:00:33.842Z,11.32
2023-01-29T13:03:18.636Z,10.38
2023-01-29T13:05:53.552Z,11.57
2023-01-29T13:08:45.644Z,12.60
2023-01-29T13:11:29.757Z,14.20
2023-01-29T13:14:01.171Z,12.02
2023-01-29T13:16:38.373Z,9.57
2023-01-29T13:19:14.017Z,11.00
2023-01-29T13:21:43.804Z,9.75
2023-01-29T13:24:16.364Z,9.90
2023-01-29T13:26:46.159Z,11.20
2023-01-29T13:29:24.753Z,11.57
2023-01-29T13:31:53.648Z,9.98
2023-01-29T13:34:24.868Z,10.40
2023-01-29T13:36:57.400Z,20.65
2023-01-29T13:39:31.808Z,13.55
2023-01-29T13:42:00.711Z,17.20
2023-01-29T13:44:40.565Z,17.73
2023-01-29T13:47:20.507Z,24.02
2023-01-29T13:50:13.194Z,13.15
2023-01-29T13:52:54.483Z,12.43
2023-01-29T13:55:37.218Z,11.98
2023-01-29T13:58:05.662Z,12.63
2023-01-29T14:00:35.017Z,14.40
2023-01-29T14:05:30.868Z,25.20
2023-01-29T14:08:01.903Z,20.13
2023-01-29T14:10:33.747Z,13.48
2023-01-29T14:13:03.153Z,14.45
2023-01-29T14:15:35.161Z,12.73
2023-01-29T14:18:10.818Z,13.93
2023-01-29T14:20:48.581Z,11.68
2023-01-29T14:23:41.232Z,14.70
2023-01-29T14:26:38.972Z,13.18
2023-01-29T14:29:25.502Z,12.15
2023-01-29T14:32:19.642Z,18.27
2023-01-29T14:34:50.287Z,17.27
2023-01-29T14:37:16.764Z,16.52
2023-01-29T14:39:45.522Z,14.48
2023-01-29T14:42:25.789Z,16.27
2023-01-29T14:44:55.311Z,11.18
2023-01-29T14:47:41.727Z,21.83
2023-01-29T14:50:31.734Z,13.25
2023-01-29T14:53:19.892Z,18.88
2023-01-29T14:55:55.859Z,13.93
2023-01-29T14:58:39.246Z,27.02
2023-01-29T15:01:28.552Z,19.10
2023-01-29T15:04:19.272Z,13.73
2023-01-29T15:07:05.825Z,13.50
2023-01-29T15:09:45.641Z,9.88
2023-01-29T15:12:46.102Z,10.82
2023-01-29T15:15:31.909Z,13.55
2023-01-29T15:18:16.167Z,10.75
2023-01-29T15:20:43.920Z,9.27
2023-01-29T15:23:28.613Z,11.50
2023-01-29T15:25:59.651Z,11.68
2023-01-29T15:28:31.545Z,17.23
2023-01-29T15:31:01.971Z,18.50
2023-01-29T15:33:28.966Z,16.13
2023-01-29T15:36:07.361Z,10.88
2023-01-29T15:38:36.893Z,16.08
2023-01-29T15:41:21.310Z,13.20
2023-01-29T15:43:50.567Z,13.45
2023-01-29T15:46:25.122Z,17.52
2023-01-29T15:48:54.284Z,10.95
2023-01-29T15:51:23.982Z,10.15
2023-01-29T15:53:57.925Z,11.43
2023-01-29T15:56:29.225Z,14.18
2023-01-29T15:58:58.807Z,9.98
2023-01-29T16:01:29.161Z,12.57
2023-01-29T16:04:01.063Z,11.18
2023-01-29T16:06:30.146Z,11.05
2023-01-29T16:08:56.722Z,13.10
2023-01-29T16:11:23.339Z,9.70
2023-01-29T16:13:51.556Z,11.52
2023-01-29T16:16:25.094Z,11.50
2023-01-29T16:19:00.133Z,14.15
2023-01-29T16:24:03.048Z,11.27
2023-01-29T16:26:34.568Z,10.38
2023-01-29T16:29:11.089Z,10.40
2023-01-29T16:31:39.110Z,9.85
2023-01-29T16:34:09.380Z,9.52
2023-01-29T16:36:36.140Z,10.45
2023-01-29T16:39:06.585Z,10.88
2023-01-29T16:41:36.262Z,11.55
2023-01-29T16:44:16.223Z,10.85
2023-01-29T16:46:47.749Z,24.48
2023-01-29T16:49:37.327Z,35.05
2023-01-29T16:52:22.744Z,13.93
2023-01-29T16:54:50.143Z,14.65
2023-01-29T16:57:21.556Z,13.07
2023-01-29T16:59:48.707Z,14.88
2023-01-29T17:02:23.077Z,9.13
2023-01-29T17:04:52.543Z,12.60
2023-01-29T17:07:21.899Z,10.90
2023-01-29T17:12:23.966Z,11.48
2023-01-29T17:14:59.502Z,13.98
2023-01-29T17:19:58.118Z,11.02
2023-01-29T17:22:24.614Z,11.30
2023-01-29T17:24:51.568Z,11.13
2023-01-29T17:27:22.348Z,12.05
2023-01-29T17:29:52.613Z,12.38
2023-01-29T17:32:19.178Z,13.00
2023-01-29T17:34:46.906Z,13.68
2023-01-29T17:37:15.429Z,12.65
2023-01-29T17:39:43.877Z,9.80
2023-01-29T17:42:15.141Z,10.90
2023-01-29T17:44:42.776Z,10.77
2023-01-29T17:47:15.172Z,11.82
2023-01-29T17:49:42.227Z,11.48
2023-01-29T17:52:09.679Z,12.60
2023-01-29T17:54:36.729Z,10.88
2023-01-29T17:57:03.322Z,10.68
2023-01-29T17:59:32.780Z,14.30
2023-01-29T18:01:59.993Z,11.95
2023-01-29T18:04:26.893Z,13.85
2023-01-29T18:06:54.337Z,9.75
2023-01-29T18:09:21.631Z,8.98
2023-01-29T18:11:49.851Z,8.45
2023-01-29T18:14:16.530Z,7.03
2023-01-29T18:16:44.812Z,10.95
2023-01-29T18:19:23.360Z,11.48
2023-01-29T18:21:50.635Z,8.35
2023-01-29T18:24:17.262Z,9.95
2023-01-29T18:26:43.677Z,12.20
2023-01-29T18:29:10.373Z,9.77
2023-01-29T18:31:36.832Z,8.68
2023-01-29T18:34:03.636Z,8.13
2023-01-29T18:36:30.292Z,7.63
2023-01-29T18:38:57.771Z,7.68
2023-01-29T18:41:24.399Z,9.05
2023-01-29T18:43:52.720Z,9.38
2023-01-29T18:46:19.852Z,10.57
2023-01-29T18:48:46.374Z,8.75
2023-01-29T18:51:12.842Z,8.30
2023-01-29T18:53:39.283Z,8.75
2023-01-29T18:56:06.680Z,8.32
2023-01-29T18:58:35.822Z,9.27
2023-01-29T19:01:09.412Z,10.35
2023-01-29T19:03:36.752Z,9.80
2023-01-29T19:06:05.873Z,9.35
2023-01-29T19:08:32.723Z,10.50
2023-01-29T19:11:02.463Z,9.48
2023-01-29T19:13:30.086Z,9.50
2023-01-29T19:15:56.707Z,11.02
2023-01-29T19:18:25.879Z,7.32
2023-01-29T19:20:53.051Z,11.38
2023-01-29T19:23:20.734Z,8.45
2023-01-29T19:25:47.647Z,10.82
2023-01-29T19:28:14.571Z,10.50
2023-01-29T19:30:41.143Z,10.82
2023-01-29T19:33:09.057Z,8.20
2023-01-29T19:35:35.688Z,11.20
2023-01-29T19:38:02.164Z,12.40
2023-01-29T19:40:28.674Z,11.50
2023-01-29T19:42:56.217Z,14.18
2023-01-29T19:45:48.998Z,10.10
2023-01-29T19:48:13.398Z,9.60
2023-01-29T19:50:39.864Z,10.45
2023-01-29T19:53:06.360Z,10.55
2023-01-29T19:55:32.779Z,6.93
2023-01-29T19:57:59.557Z,9.65
2023-01-29T20:00:26.064Z,10.57
2023-01-29T20:02:52.788Z,9.95
2023-01-29T20:05:20.536Z,12.75
2023-01-29T20:07:47.336Z,12.75
2023-01-29T20:10:17.098Z,11.43
2023-01-29T20:12:44.978Z,10.95
2023-01-29T20:15:12.731Z,12.80
2023-01-29T20:17:39.319Z,10.63
2023-01-29T20:20:06.833Z,15.38
2023-01-29T20:22:33.343Z,11.77
2023-01-29T20:24:59.939Z,13.75
2023-01-29T20:27:26.338Z,12.00
2023-01-29T20:29:52.807Z,11.10
2023-01-29T20:32:19.345Z,9.52
2023-01-29T20:34:49.601Z,10.68
2023-01-29T20:37:16.085Z,10.85
2023-01-29T20:39:42.512Z,11.90
2023-01-29T20:42:08.902Z,11.43
2023-01-29T20:44:35.312Z,14.50
2023-01-29T20:47:02.597Z,12.38
2023-01-29T20:49:29.064Z,8.20
2023-01-29T20:51:55.648Z,10.90
2023-01-29T20:54:22.296Z,10.25
2023-01-29T20:56:49.099Z,13.77
2023-01-29T20:59:15.654Z,12.13
2023-01-29T21:01:43.189Z,11.55
2023-01-29T21:04:09.601Z,11.98
2023-01-29T21:06:36.121Z,9.98
2023-01-29T21:09:02.876Z,12.40
2023-01-29T21:11:31.961Z,9.63
2023-01-29T21:13:58.645Z,12.05
2023-01-29T21:16:28.592Z,13.65
2023-01-29T21:18:58.020Z,11.00
2023-01-29T21:23:54.255Z,11.60
2023-01-29T21:26:23.604Z,14.98
2023-01-29T21:31:17.712Z,12.52
2023-01-29T21:33:44.280Z,10.75
2023-01-29T21:36:11.436Z,9.07
2023-01-29T21:38:38.075Z,13.52
2023-01-29T21:41:09.518Z,12.70
2023-01-29T21:43:36.717Z,14.50
2023-01-29T21:46:11.362Z,15.65
2023-01-29T21:48:39.315Z,9.73
2023-01-29T21:51:06.074Z,11.35
2023-01-29T21:53:32.806Z,13.75
2023-01-29T21:56:03.711Z,13.38
2023-01-29T21:58:30.871Z,15.60
2023-01-29T22:00:57.325Z,14.48
2023-01-29T22:03:46.736Z,14.23
2023-01-29T22:06:13.541Z,11.65
2023-01-29T22:08:39.933Z,13.68
2023-01-29T22:11:07.454Z,11.80
2023-01-29T22:13:34.383Z,14.73
2023-01-29T22:16:00.995Z,14.00
2023-01-29T22:18:27.629Z,13.25
2023-01-29T22:20:57.880Z,10.52
2023-01-29T22:23:24.682Z,13.32
2023-01-29T22:25:51.067Z,13.20
2023-01-29T22:28:18.177Z,13.75
2023-01-29T22:30:45.430Z,18.02
2023-01-29T22:33:12.297Z,13.70
2023-01-29T22:35:38.816Z,10.40
2023-01-29T22:38:05.300Z,11.50
2023-01-29T22:40:31.745Z,13.85
2023-01-29T22:42:58.145Z,14.88
2023-01-29T22:45:24.513Z,14.68
2023-01-29T22:47:50.928Z,13.00
2023-01-29T22:50:17.717Z,13.07
2023-01-29T22:52:53.369Z,14.57
2023-01-29T22:57:49.697Z,11.57
2023-01-29T23:00:17.036Z,13.00
2023-01-29T23:02:43.707Z,13.43
2023-01-29T23:05:10.127Z,10.50
2023-01-29T23:07:36.545Z,12.50
2023-01-29T23:10:03.519Z,11.55
2023-01-29T23:12:29.925Z,14.43
2023-01-29T23:14:56.355Z,13.32
2023-01-29T23:17:22.767Z,13.20
2023-01-29T23:19:49.169Z,15.07
2023-01-29T23:22:15.580Z,13.15
2023-01-29T23:24:42.041Z,15.65
2023-01-29T23:27:15.319Z,13.90
2023-01-29T23:29:48.626Z,12.48
2023-01-29T23:32:17.660Z,11.15
2023-01-29T23:34:44.164Z,9.80
2023-01-29T23:37:10.849Z,11.60
2023-01-29T23:39:37.233Z,12.07
2023-01-29T23:42:04.055Z,12.82
2023-01-29T23:44:30.614Z,11.75
2023-01-29T23:46:58.162Z,10.93
2023-01-29T23:49:24.702Z,11.55
2023-01-29T23:51:51.356Z,8.82
2023-01-29T23:54:18.202Z,8.10
2023-01-29T23:56:44.762Z,9.13
2023-01-29T23:59:11.262Z,8.38
